Milk And Honey — WDF9265 — position and weather

sailwx.info

Track history (hours):
 
Tides and Currents Weather Stations Pressure Air Temp Water Temp Dewpoint Dewpoint Depression Visibility Wind Speed Wind Dir Waves Ship Positions

Milk And Honey

Owner: EKS Chartering Inc, Parsippany, NJ. More information available from US FCC via Universal Licensing System and Coast Guard Vessel Documentation Center.

Last reported at 2016-Jul-23 23:09 UTC. Time now 2016-Jul-27 01:13 UTC.
Position N 26°39' W 079°52'.

Length 40 m.

Type: Pleasure craft. MMSI: 367503380.

Date/timePositionNaut miles runAvg speedWind from/ knotsBaromVisibWave heightAir tempDewpointWater temp
2016-Jul-23 23:09N 26°39' W 079°52'916.0
2016-Jul-23 22:33N 26°29' W 079°54'616.0
2016-Jul-23 22:10N 26°23' W 079°55'915.5
2016-Jul-23 21:33N 26°14' W 079°58'115.3
2016-Jul-23 21:30N 26°14' W 079°59'1111.3
2016-Jul-23 20:33N 26°05' W 080°07'014.0
2016-Jul-23 20:33N 26°05' W 080°07'2 2.0
2016-Jul-23 19:33N 26°04' W 080°08'0 0.0
2016-Jul-23 18:33N 26°04' W 080°08'0 0.0
2016-Jul-23 17:33N 26°04' W 080°08'0 0.0
2016-Jul-23 16:33N 26°04' W 080°08'0 0.0
2016-Jul-23 15:33N 26°04' W 080°08'0 0.0
2016-Jul-23 14:33N 26°04' W 080°08'0 0.0
2016-Jul-23 13:33N 26°04' W 080°08'0 0.0
2016-Jul-23 12:33N 26°04' W 080°08'0 0.0
2016-Jul-23 11:33N 26°04' W 080°08'0 0.0
2016-Jul-23 10:33N 26°04' W 080°08'0 0.0
2016-Jul-23 09:33N 26°04' W 080°08'0 0.0
2016-Jul-23 08:33N 26°04' W 080°08'0 0.0
2016-Jul-23 07:33N 26°04' W 080°08'0 0.0
2016-Jul-23 06:33N 26°04' W 080°08'0 0.0
2016-Jul-23 04:33N 26°04' W 080°08'0 0.0
2016-Jul-23 03:34N 26°04' W 080°08'0 0.0
2016-Jul-23 02:34N 26°04' W 080°08'0 0.0
2016-Jul-23 01:34N 26°04' W 080°08'0 0.0
2016-Jul-23 00:34N 26°04' W 080°08'0 0.0
2016-Jul-22 23:34N 26°04' W 080°08'0 0.0
2016-Jul-22 22:33N 26°04' W 080°08'0 0.0
2016-Jul-22 21:33N 26°04' W 080°08'0 0.0
2016-Jul-22 20:33N 26°04' W 080°08'0 0.0
2016-Jul-22 19:33N 26°04' W 080°08'0 0.0
2016-Jul-22 18:33N 26°04' W 080°08'0 0.0
2016-Jul-22 17:33N 26°04' W 080°08'1 9.2
2016-Jul-22 17:25N 26°04' W 080°07'1 1.5
2016-Jul-22 16:33N 26°04' W 080°08'345.0
2016-Jul-22 16:28N 26°07' W 080°09'3 3.6
2016-Jul-22 15:33N 26°04' W 080°08'0 0.0
2016-Jul-22 14:33N 26°04' W 080°08'0 0.0
2016-Jul-22 13:33N 26°04' W 080°08'0 0.0
2016-Jul-22 12:33N 26°04' W 080°08'0 0.0
2016-Jul-22 11:33N 26°04' W 080°08'0 0.0
2016-Jul-22 10:33N 26°04' W 080°08'0 0.0
2016-Jul-22 09:33N 26°04' W 080°08'0 0.0
2016-Jul-22 08:33N 26°04' W 080°08'0 0.0
2016-Jul-22 07:33N 26°04' W 080°08'0 0.0
2016-Jul-22 05:33N 26°04' W 080°08'0 0.0
2016-Jul-22 04:33N 26°04' W 080°08'0 0.0
2016-Jul-22 03:33N 26°04' W 080°08'0 0.0
2016-Jul-22 02:33N 26°04' W 080°08'0 0.0
2016-Jul-22 01:33N 26°04' W 080°08'0 0.0
2016-Jul-22 00:33N 26°04' W 080°08'0 0.0
2016-Jul-21 23:33N 26°04' W 080°08'0 0.0
2016-Jul-21 22:33N 26°04' W 080°08'0 0.0
2016-Jul-21 21:33N 26°04' W 080°08'0 0.0
2016-Jul-21 20:33N 26°04' W 080°08'0 0.0
2016-Jul-21 19:33N 26°04' W 080°08'0 0.0
2016-Jul-21 18:33N 26°04' W 080°08'0 0.0
2016-Jul-21 17:33N 26°04' W 080°08'2 2.4
2016-Jul-21 16:33N 26°06' W 080°07'0 0.2
2016-Jul-21 15:33N 26°06' W 080°06'3 2.6
2016-Jul-21 14:33N 26°07' W 080°09'2 1.5
2016-Jul-21 13:33N 26°06' W 080°10'0 0.0
2016-Jul-21 12:33N 26°06' W 080°10'0 0.0
2016-Jul-21 11:33N 26°06' W 080°10'  
Track history (hours):
 
Tides and Currents Weather Stations Pressure Air Temp Water Temp Dewpoint Dewpoint Depression Visibility Wind Speed Wind Dir Waves Ship Positions

Milk And Honey

Owner: EKS Chartering Inc, Parsippany, NJ. More information available from US FCC via Universal Licensing System and Coast Guard Vessel Documentation Center.

Last reported at 2016-Jul-23 23:09 UTC. Time now 2016-Jul-27 01:13 UTC.
Position N 26°39' W 079°52'.

Length 40 m.

Type: Pleasure craft. MMSI: 367503380.

Date/timePositionNaut miles runAvg speedWind from/ knotsBaromVisibWave heightAir tempDewpointWater temp
2016-Jul-23 23:09N 26°39' W 079°52'916.0
2016-Jul-23 22:33N 26°29' W 079°54'616.0
2016-Jul-23 22:10N 26°23' W 079°55'915.5
2016-Jul-23 21:33N 26°14' W 079°58'115.3
2016-Jul-23 21:30N 26°14' W 079°59'1111.3
2016-Jul-23 20:33N 26°05' W 080°07'014.0
2016-Jul-23 20:33N 26°05' W 080°07'2 2.0
2016-Jul-23 19:33N 26°04' W 080°08'0 0.0
2016-Jul-23 18:33N 26°04' W 080°08'0 0.0
2016-Jul-23 17:33N 26°04' W 080°08'0 0.0
2016-Jul-23 16:33N 26°04' W 080°08'0 0.0
2016-Jul-23 15:33N 26°04' W 080°08'0 0.0
2016-Jul-23 14:33N 26°04' W 080°08'0 0.0
2016-Jul-23 13:33N 26°04' W 080°08'0 0.0
2016-Jul-23 12:33N 26°04' W 080°08'0 0.0
2016-Jul-23 11:33N 26°04' W 080°08'0 0.0
2016-Jul-23 10:33N 26°04' W 080°08'0 0.0
2016-Jul-23 09:33N 26°04' W 080°08'0 0.0
2016-Jul-23 08:33N 26°04' W 080°08'0 0.0
2016-Jul-23 07:33N 26°04' W 080°08'0 0.0
2016-Jul-23 06:33N 26°04' W 080°08'0 0.0
2016-Jul-23 04:33N 26°04' W 080°08'0 0.0
2016-Jul-23 03:34N 26°04' W 080°08'0 0.0
2016-Jul-23 02:34N 26°04' W 080°08'0 0.0
2016-Jul-23 01:34N 26°04' W 080°08'0 0.0
2016-Jul-23 00:34N 26°04' W 080°08'0 0.0
2016-Jul-22 23:34N 26°04' W 080°08'0 0.0
2016-Jul-22 22:33N 26°04' W 080°08'0 0.0
2016-Jul-22 21:33N 26°04' W 080°08'0 0.0
2016-Jul-22 20:33N 26°04' W 080°08'0 0.0
2016-Jul-22 19:33N 26°04' W 080°08'0 0.0
2016-Jul-22 18:33N 26°04' W 080°08'0 0.0
2016-Jul-22 17:33N 26°04' W 080°08'1 9.2
2016-Jul-22 17:25N 26°04' W 080°07'1 1.5
2016-Jul-22 16:33N 26°04' W 080°08'345.0
2016-Jul-22 16:28N 26°07' W 080°09'3 3.6
2016-Jul-22 15:33N 26°04' W 080°08'0 0.0
2016-Jul-22 14:33N 26°04' W 080°08'0 0.0
2016-Jul-22 13:33N 26°04' W 080°08'0 0.0
2016-Jul-22 12:33N 26°04' W 080°08'0 0.0
2016-Jul-22 11:33N 26°04' W 080°08'0 0.0
2016-Jul-22 10:33N 26°04' W 080°08'0 0.0
2016-Jul-22 09:33N 26°04' W 080°08'0 0.0
2016-Jul-22 08:33N 26°04' W 080°08'0 0.0
2016-Jul-22 07:33N 26°04' W 080°08'0 0.0
2016-Jul-22 05:33N 26°04' W 080°08'0 0.0
2016-Jul-22 04:33N 26°04' W 080°08'0 0.0
2016-Jul-22 03:33N 26°04' W 080°08'0 0.0
2016-Jul-22 02:33N 26°04' W 080°08'0 0.0
2016-Jul-22 01:33N 26°04' W 080°08'0 0.0
2016-Jul-22 00:33N 26°04' W 080°08'0 0.0
2016-Jul-21 23:33N 26°04' W 080°08'0 0.0
2016-Jul-21 22:33N 26°04' W 080°08'0 0.0
2016-Jul-21 21:33N 26°04' W 080°08'0 0.0
2016-Jul-21 20:33N 26°04' W 080°08'0 0.0
2016-Jul-21 19:33N 26°04' W 080°08'0 0.0
2016-Jul-21 18:33N 26°04' W 080°08'0 0.0
2016-Jul-21 17:33N 26°04' W 080°08'2 2.4
2016-Jul-21 16:33N 26°06' W 080°07'0 0.2
2016-Jul-21 15:33N 26°06' W 080°06'3 2.6
2016-Jul-21 14:33N 26°07' W 080°09'2 1.5
2016-Jul-21 13:33N 26°06' W 080°10'0 0.0
2016-Jul-21 12:33N 26°06' W 080°10'0 0.0
2016-Jul-21 11:33N 26°06' W 080°10'  

Dump ship's entire track history